Portland, Missouri
Current Conditions -  °F | °C
As of 4:53 PM on Saturday 20 Dec 2014 (Local Time) from KJEF Reporting Station
Overcast Overcast  
Wind Chill: 43°   Ceiling: 2300
Heat Index: 43°   Visibility: 10mi
Dew Point: 35°   Wind: 3mph
Humidity: 74%   Direction: 180°S
Pressure: 30.2"   Gusts: NA
Location:  38.71°N, 91.72°W
Report Text: KJEF 202253Z 18003KT 10SM OVC023 06/02 A3020 RMK AO2 SLP220 T00610017
Loading
Personal Weather Stations






























Interactive Weather Map New forecast layout! Learn more

10-Day Weather Forecast

Advertisements
Track Severe Weather on mobile